Time;durP1;ratioP1;P1;durP2;ratioP2;P2;SDS_P1;SDS_P2;PMS_P1;PMS_P2;Temp;Humidity;BMP_temperature;BMP_pressure;BME280_temperature;BME280_humidity;BME280_pressure;Samples;Min_cycle;Max_cycle;Signal;HPM_P1;HPM_P2
2022/04/19 00:00:43;;;;;;;4.18;3.38;;;5.50;1.00;;;5.49;55.77;101056.88;4825341;29;20233;-73
2022/04/19 00:03:14;;;;;;;3.55;3.00;;;5.50;1.00;;;5.48;55.87;101051.66;4824494;29;20540;-74
2022/04/19 00:05:44;;;;;;;4.22;3.50;;;5.50;1.00;;;5.40;55.94;101057.00;4824648;29;20197;-74
2022/04/19 00:08:15;;;;;;;3.60;2.70;;;5.50;1.00;;;5.37;56.29;101049.31;4824716;29;20185;-72
2022/04/19 00:10:44;;;;;;;3.63;2.65;;;5.40;1.00;;;5.39;56.04;101047.28;4824713;29;20221;-73
2022/04/19 00:13:17;;;;;;;7.53;2.78;;;5.50;1.00;;;5.28;56.41;101053.78;4838656;29;20197;-76
2022/04/19 00:15:47;;;;;;;6.68;4.10;;;5.40;1.00;;;5.33;56.84;101043.41;4825466;29;20177;-74
2022/04/19 00:18:19;;;;;;;4.10;3.03;;;5.40;1.00;;;5.34;56.86;101039.72;4824200;29;20268;-74
2022/04/19 00:20:47;;;;;;;4.05;2.03;;;5.40;1.00;;;5.30;56.62;101033.00;4824933;29;20236;-73
2022/04/19 00:23:17;;;;;;;7.82;2.90;;;5.30;1.00;;;5.23;57.09;101042.69;4824498;29;20575;-74
2022/04/19 00:25:50;;;;;;;4.30;3.00;;;5.30;1.00;;;5.30;56.77;101030.31;4824032;29;20320;-77
2022/04/19 00:28:20;;;;;;;2.85;2.25;;;5.30;1.00;;;5.31;57.08;101044.59;4824288;29;20281;-73
2022/04/19 00:30:57;;;;;;;3.55;2.55;;;5.40;1.00;;;5.31;56.97;101040.06;4824524;29;20231;-74
2022/04/19 00:33:27;;;;;;;4.93;2.60;;;5.30;1.00;;;5.34;56.86;101031.66;4822880;29;20262;-74
2022/04/19 00:35:55;;;;;;;2.58;2.15;;;5.30;1.00;;;5.41;56.64;101034.53;4824695;29;20265;-75
2022/04/19 00:38:24;;;;;;;2.97;2.67;;;5.40;99.90;;;5.38;57.11;101038.38;4824236;29;20627;-75
2022/04/19 00:40:53;;;;;;;2.67;2.28;;;5.40;6.40;;;5.39;57.08;101025.81;4822732;29;20229;-73
2022/04/19 00:43:26;;;;;;;11.93;2.92;;;5.40;6.00;;;5.38;56.89;101026.81;4823265;29;20612;-75
2022/04/19 00:45:55;;;;;;;2.50;2.30;;;5.40;6.50;;;5.40;56.86;101031.00;4823984;29;20215;-74
2022/04/19 00:48:24;;;;;;;6.75;2.78;;;5.40;7.10;;;5.34;57.26;101028.97;4823830;29;20300;-73
2022/04/19 00:50:55;;;;;;;4.80;2.55;;;5.40;6.70;;;5.35;57.12;101025.31;4824267;29;20208;-75
2022/04/19 00:53:29;;;;;;;5.18;2.80;;;5.40;7.00;;;5.21;57.49;101034.00;4824294;29;20181;-75
2022/04/19 00:56:03;;;;;;;3.47;1.80;;;5.30;7.70;;;5.13;57.87;101032.13;4823427;29;20283;-74
2022/04/19 00:58:35;;;;;;;8.10;3.00;;;5.20;8.40;;;4.97;58.53;101025.88;4823895;29;20238;-75
2022/04/19 01:01:04;;;;;;;5.72;2.72;;;5.10;9.40;;;4.81;58.85;101021.28;4823654;29;20700;-74
2022/04/19 01:03:33;;;;;;;3.00;2.70;;;4.90;10.50;;;4.87;58.91;101022.50;4822890;29;20200;-74
2022/04/19 01:06:11;;;;;;;4.75;3.03;;;4.90;11.90;;;4.91;58.81;101015.78;4822018;29;20212;-74
2022/04/19 01:08:42;;;;;;;6.28;3.13;;;4.90;12.60;;;4.84;59.48;101017.47;4824437;29;20189;-75
2022/04/19 01:14:06;;;;;;;3.85;2.72;;;4.80;14.30;;;4.69;59.97;101010.03;4823156;29;20617;-73
2022/04/19 01:16:37;;;;;;;2.80;2.33;;;4.80;15.70;;;4.67;59.86;101003.97;4822201;29;20208;-73
2022/04/19 01:19:15;;;;;;;3.90;2.97;;;4.80;16.80;;;4.64;60.17;101015.03;4822315;29;20193;-73
2022/04/19 01:21:48;;;;;;;2.80;2.60;;;4.70;18.40;;;4.60;60.34;101019.00;4822665;29;20330;-74
2022/04/19 01:24:39;;;;;;;6.15;3.88;;;4.70;19.00;;;4.63;60.24;101017.88;4823398;29;20228;-74
2022/04/19 01:27:09;;;;;;;6.82;3.70;;;4.70;19.90;;;4.54;60.61;101024.19;4822488;29;20249;-75
2022/04/19 01:29:41;;;;;;;7.00;2.85;;;4.70;21.10;;;4.56;60.70;101017.66;4821598;29;20212;-73
2022/04/19 01:32:13;;;;;;;3.17;2.88;;;4.60;22.70;;;4.58;60.77;101010.31;4821536;29;20224;-76
2022/04/19 01:34:43;;;;;;;3.13;2.83;;;4.60;24.00;;;4.58;60.63;101010.31;4822164;29;20288;-74
2022/04/19 01:37:21;;;;;;;5.30;3.20;;;4.60;24.50;;;4.49;61.06;101011.28;4822109;29;20201;-73
2022/04/19 01:42:39;;;;;;;4.13;3.15;;;4.60;26.80;;;4.59;60.95;101011.16;4822065;29;20193;-76
2022/04/19 01:45:09;;;;;;;5.13;3.60;;;4.60;27.80;;;4.54;60.90;101006.28;4822145;29;20281;-75
2022/04/19 01:47:39;;;;;;;4.53;3.50;;;4.60;28.00;;;4.59;61.14;100997.75;4822352;29;20219;-74
2022/04/19 01:50:10;;;;;;;7.45;4.03;;;4.60;28.60;;;4.63;60.88;100993.75;4823360;29;20220;-75
2022/04/19 01:52:42;;;;;;;6.90;4.20;;;4.60;29.10;;;4.59;61.10;101001.28;4823440;29;20705;-75
2022/04/19 01:55:17;;;;;;;7.57;3.67;;;4.70;29.30;;;4.61;61.09;100999.25;4822188;29;20204;-75
2022/04/19 01:57:48;;;;;;;3.40;2.72;;;4.60;29.00;;;4.61;60.74;100990.38;4822148;29;20204;-74
2022/04/19 02:00:18;;;;;;;8.38;3.00;;;4.60;29.40;;;4.54;61.22;100989.34;4821666;29;20225;-75
2022/04/19 02:02:52;;;;;;;3.33;2.80;;;4.60;30.00;;;4.50;61.07;100996.03;4821805;29;20237;-74
2022/04/19 02:05:23;;;;;;;3.55;3.00;;;4.60;30.20;;;4.67;60.80;100992.41;4822466;29;20211;-74
2022/04/19 02:07:54;;;;;;;5.30;3.90;;;4.60;30.50;;;4.63;60.72;100989.22;4821872;29;20244;-74
2022/04/19 02:10:25;;;;;;;4.85;3.28;;;4.70;30.30;;;4.62;60.61;100990.22;4821658;29;20224;-75
2022/04/19 02:12:55;;;;;;;9.00;3.88;;;4.70;29.80;;;4.69;60.61;100993.13;4821924;29;20219;-75
2022/04/19 02:15:33;;;;;;;4.05;3.08;;;4.70;29.60;;;4.70;60.40;100987.56;4823878;29;20200;-73
2022/04/19 02:18:22;;;;;;;4.00;3.42;;;4.70;29.70;;;4.67;60.81;100985.22;4826164;29;20239;-75
2022/04/19 02:20:51;;;;;;;7.60;3.50;;;4.70;29.50;;;4.66;60.29;100980.84;4825595;29;20247;-75
2022/04/19 02:23:21;;;;;;;5.78;3.53;;;4.70;28.60;;;4.50;60.84;100975.44;4826718;29;20189;-75
2022/04/19 02:25:52;;;;;;;5.15;3.75;;;4.60;29.70;;;4.54;60.94;100976.81;4825430;29;20223;-74
2022/04/19 02:28:21;;;;;;;5.75;3.38;;;4.60;30.00;;;4.57;60.73;100980.97;4825549;29;20209;-74
2022/04/19 02:31:09;;;;;;;4.22;3.35;;;4.60;29.80;;;4.51;60.96;100981.63;4825325;29;20307;-75
2022/04/19 02:33:41;;;;;;;5.10;3.50;;;4.60;30.20;;;4.41;61.16;100981.75;4825100;29;20648;-75
2022/04/19 02:36:10;;;;;;;4.60;3.45;;;4.50;31.00;;;4.44;60.81;100992.16;4824777;29;20645;-75
2022/04/19 02:38:41;;;;;;;9.30;4.00;;;4.50;30.80;;;4.42;61.00;100994.16;4825060;29;20217;-74
2022/04/19 02:41:10;;;;;;;4.60;3.50;;;4.50;31.60;;;4.43;61.32;100978.91;4824648;29;20224;-75
2022/04/19 02:43:41;;;;;;;4.63;3.08;;;4.50;32.50;;;4.31;61.32;100994.41;4824757;29;20189;-75
2022/04/19 02:46:10;;;;;;;5.03;3.60;;;4.50;34.10;;;4.36;61.51;100984.06;4824837;29;20229;-74
2022/04/19 02:48:42;;;;;;;4.35;3.83;;;4.40;34.40;;;4.27;61.42;100993.06;4824842;29;20193;-74
2022/04/19 02:51:12;;;;;;;4.35;3.22;;;4.40;34.80;;;4.19;61.75;100999.22;4825227;29;20703;-74
2022/04/19 02:53:43;;;;;;;4.15;3.22;;;4.30;35.90;;;4.22;61.68;100992.69;4825960;29;20197;-74
2022/04/19 02:56:12;;;;;;;7.88;3.78;;;4.30;36.80;;;4.20;61.80;100990.19;4826356;29;20268;-74
2022/04/19 02:58:41;;;;;;;5.22;3.55;;;4.30;37.60;;;4.08;61.88;100983.41;4825547;29;20632;-74
2022/04/19 03:01:10;;;;;;;4.50;3.92;;;4.20;38.60;;;4.11;62.00;100990.31;4825409;29;20221;-75
2022/04/19 03:03:39;;;;;;;5.80;3.85;;;4.20;40.00;;;4.04;62.02;100982.06;4825090;29;20254;-75
2022/04/19 03:06:11;;;;;;;4.50;3.10;;;4.20;40.30;;;4.05;62.26;100981.06;4826009;29;20200;-75
2022/04/19 03:08:40;;;;;;;3.95;3.63;;;4.20;42.20;;;3.90;62.75;100971.91;4824969;29;20575;-75
2022/04/19 03:11:12;;;;;;;6.25;3.55;;;4.10;43.00;;;3.94;62.69;100979.47;4824527;29;20227;-75
2022/04/19 03:13:40;;;;;;;5.80;3.67;;;4.10;45.00;;;3.90;62.71;100983.47;4825899;29;20703;-74
2022/04/19 03:16:13;;;;;;;6.03;3.22;;;4.00;44.90;;;3.78;63.11;100976.69;4825171;29;20726;-74
2022/04/19 03:18:43;;;;;;;7.50;3.30;;;4.00;46.80;;;3.81;63.09;100971.03;4825092;29;20222;-75
2022/04/19 03:21:14;;;;;;;7.43;3.70;;;3.90;48.10;;;3.84;62.91;100970.72;4824562;29;20221;-75
2022/04/19 03:29:19;;;;;;;4.15;2.97;;;3.90;51.00;;;3.76;63.11;100981.38;4824775;29;20299;-75
2022/04/19 03:31:48;;;;;;;5.50;4.25;;;3.90;50.60;;;3.76;63.20;100972.50;4825381;29;20228;-74
2022/04/19 03:34:18;;;;;;;5.03;3.45;;;3.90;52.60;;;3.74;63.17;100978.00;4825199;29;20254;-75
2022/04/19 03:36:48;;;;;;;4.05;3.35;;;3.80;52.80;;;3.65;63.38;100972.72;4824063;29;20582;-73
2022/04/19 03:39:17;;;;;;;4.30;3.50;;;3.80;53.60;;;3.58;63.47;100977.88;4826627;24;20241;-66
2022/04/19 03:41:47;;;;;;;5.47;3.97;;;3.70;54.90;;;3.55;63.54;100966.63;4821854;29;20206;-67
2022/04/19 03:44:16;;;;;;;4.90;3.10;;;3.70;56.00;;;3.61;63.41;100976.72;4819065;29;20574;-66
2022/04/19 03:49:32;;;;;;;4.30;3.90;;;3.70;58.00;;;3.52;63.58;100975.81;4789755;29;20197;-66
2022/04/19 03:52:12;;;;;;;6.40;3.47;;;3.60;57.50;;;3.49;63.96;100986.81;4790851;29;20622;-65
2022/04/19 03:54:45;;;;;;;4.65;3.80;;;3.60;57.80;;;3.43;63.95;100990.13;4783769;29;20215;-64
2022/04/19 03:57:16;;;;;;;5.07;3.92;;;3.60;59.20;;;3.49;63.48;100989.50;4771542;30;20179;-65
2022/04/19 03:59:46;;;;;;;4.20;3.55;;;3.60;59.20;;;3.47;63.55;100978.13;4785742;29;20588;-64
2022/04/19 04:02:20;;;;;;;3.45;2.70;;;3.60;59.70;;;3.49;63.71;100989.50;4785042;29;20267;-64
2022/04/19 04:04:49;;;;;;;5.47;3.90;;;3.60;61.30;;;3.47;63.85;100980.78;4785196;30;20198;-64
2022/04/19 04:07:18;;;;;;;4.70;4.20;;;3.60;60.80;;;3.45;63.97;100974.75;4785200;29;20223;-65
2022/04/19 04:09:49;;;;;;;3.75;3.40;;;3.60;61.80;;;3.49;63.81;100971.59;4785072;29;20211;-66
2022/04/19 04:12:19;;;;;;;6.00;3.90;;;3.50;62.10;;;3.38;64.17;100971.03;4784963;30;20211;-65
2022/04/19 04:14:48;;;;;;;5.20;4.22;;;3.50;63.00;;;3.39;63.95;100978.03;4771525;30;20649;-65
2022/04/19 04:17:20;;;;;;;4.35;3.65;;;3.50;63.00;;;3.48;63.75;100982.47;4784825;29;20218;-65
2022/04/19 04:19:51;;;;;;;7.20;4.00;;;3.50;62.90;;;3.51;63.67;100982.16;4785367;30;20224;-65
2022/04/19 04:22:21;;;;;;;4.43;4.03;;;3.60;62.80;;;3.46;64.07;100974.59;4785001;30;20230;-65
2022/04/19 04:24:50;;;;;;;7.20;3.83;;;3.50;64.80;;;3.46;63.79;100973.75;4785848;30;20234;-64
2022/04/19 04:27:20;;;;;;;6.72;4.05;;;3.50;65.50;;;3.45;64.10;100966.72;4785449;30;20665;-64
2022/04/19 04:29:50;;;;;;;5.50;3.60;;;3.50;66.60;;;3.79;63.73;100980.19;4785346;30;20210;-64
2022/04/19 04:32:19;;;;;;;6.35;4.75;;;3.60;66.60;;;4.76;60.89;100978.88;4785151;30;20199;-65
2022/04/19 04:34:48;;;;;;;7.95;4.28;;;4.00;59.30;;;5.51;58.59;100982.38;4784836;30;20286;-65
2022/04/19 04:37:17;;;;;;;7.82;4.80;;;4.50;47.00;;;6.02;57.04;100985.72;4785436;30;20249;-64
2022/04/19 04:39:56;;;;;;;5.18;3.50;;;5.00;38.90;;;6.73;54.84;100982.16;4785391;29;20264;-64
2022/04/19 04:42:26;;;;;;;9.32;4.10;;;5.40;31.10;;;7.06;54.12;100980.16;4771834;30;20265;-64
2022/04/19 04:45:03;;;;;;;8.05;4.03;;;5.80;1.00;;;7.84;52.37;100986.13;4785063;30;20199;-65
2022/04/19 04:50:19;;;;;;;6.70;3.50;;;6.50;1.00;;;7.83;51.93;100992.53;4785663;30;20681;-63
2022/04/19 04:52:49;;;;;;;4.15;3.58;;;6.60;1.00;;;7.18;53.89;100989.47;4785694;29;20234;-64
2022/04/19 04:55:18;;;;;;;8.25;3.85;;;6.50;1.00;;;7.33;53.60;100987.69;4786105;30;20195;-65
2022/04/19 04:57:50;;;;;;;6.97;4.20;;;6.40;1.00;;;7.86;52.25;100990.31;4772765;30;20606;-64
2022/04/19 05:00:19;;;;;;;4.68;3.80;;;6.60;1.00;;;7.85;52.63;100988.63;4785967;30;20266;-64
2022/04/19 05:02:54;;;;;;;4.95;3.53;;;6.90;1.00;;;7.73;52.89;100983.84;4785053;30;20766;-65
2022/04/19 05:05:24;;;;;;;4.20;3.80;;;6.90;1.00;;;8.22;52.01;100974.28;4769720;30;20213;-64
2022/04/19 05:07:58;;;;;;;5.55;4.03;;;7.10;1.00;;;8.08;52.01;100983.19;4770706;29;20219;-65
2022/04/19 05:10:29;;;;;;;10.27;4.53;;;7.20;1.00;;;8.92;50.26;100981.88;4784608;30;20256;-65
2022/04/19 05:13:00;;;;;;;8.27;3.90;;;7.40;1.00;;;7.52;53.14;100981.00;4784579;30;20272;-64
2022/04/19 05:15:30;;;;;;;7.53;5.57;;;7.20;1.00;;;5.97;57.19;100982.72;4784522;29;20222;-64
2022/04/19 05:17:59;;;;;;;6.70;4.93;;;6.40;1.00;;;5.24;60.17;100975.47;4770331;29;20680;-64
2022/04/19 05:20:28;;;;;;;6.93;4.07;;;5.70;1.00;;;5.03;60.98;100979.63;4784196;30;20626;-65
2022/04/19 05:22:58;;;;;;;5.88;4.13;;;5.30;1.00;;;4.95;61.44;100990.31;4784137;30;20228;-63
2022/04/19 05:25:28;;;;;;;8.77;4.65;;;5.10;36.40;;;4.93;61.82;100981.63;4769080;30;20661;-64
2022/04/19 05:27:57;;;;;;;6.30;4.03;;;5.00;43.70;;;4.93;62.06;100981.63;4770118;30;20215;-63
2022/04/19 05:30:28;;;;;;;9.57;4.55;;;5.00;47.80;;;4.89;61.72;100997.19;4784023;30;20232;-64
2022/04/19 05:32:57;;;;;;;5.95;4.40;;;5.00;49.90;;;5.00;61.87;100996.88;4783741;30;20328;-64
2022/04/19 05:35:27;;;;;;;6.18;5.28;;;5.00;52.10;;;5.11;61.65;100995.75;4784207;30;20202;-64
2022/04/19 05:37:58;;;;;;;6.78;4.80;;;5.10;52.40;;;5.12;61.47;100986.69;4784385;30;20198;-63
2022/04/19 05:40:30;;;;;;;6.30;4.97;;;5.10;50.80;;;5.14;61.20;101001.63;4784333;29;20205;-64
2022/04/19 05:42:59;;;;;;;8.25;7.45;;;5.20;50.00;;;5.07;61.45;100994.41;4770009;30;20217;-63
2022/04/19 05:45:29;;;;;;;6.15;4.85;;;5.20;50.10;;;5.22;61.53;100998.13;4770058;30;20187;-64
2022/04/19 05:47:58;;;;;;;9.15;5.05;;;5.30;49.70;;;5.21;60.82;101007.16;4783615;30;20218;-64
2022/04/19 05:50:28;;;;;;;6.75;5.20;;;5.20;47.60;;;5.33;61.32;101010.34;4783832;30;20206;-65
2022/04/19 05:52:58;;;;;;;5.90;5.13;;;5.30;48.80;;;5.48;60.80;101004.19;4788482;29;20230;-63
2022/04/19 05:55:26;;;;;;;5.18;4.40;;;5.40;47.30;;;5.59;59.99;101005.69;4790691;30;20222;-63
2022/04/19 05:57:56;;;;;;;10.73;4.95;;;5.50;42.90;;;5.64;60.07;101012.25;4789827;30;20207;-63
2022/04/19 06:00:25;;;;;;;8.15;5.13;;;5.60;42.60;;;5.67;59.91;101009.22;4789818;30;20222;-63
2022/04/19 06:05:48;;;;;;;5.90;4.30;;;5.80;37.20;;;5.91;59.10;101012.94;4776077;30;20179;-63
2022/04/19 06:08:17;;;;;;;11.52;4.32;;;5.90;35.80;;;6.02;58.77;101007.22;4789428;30;20604;-63
2022/04/19 06:10:51;;;;;;;10.20;5.70;;;6.00;34.20;;;6.11;58.06;101009.72;4789723;30;20250;-62
2022/04/19 06:13:20;;;;;;;7.13;4.97;;;6.10;31.30;;;6.20;57.74;101005.16;4775900;30;20249;-62
2022/04/19 06:15:50;;;;;;;10.70;4.82;;;6.20;30.30;;;6.32;57.72;101008.34;4794432;29;20222;-64
2022/04/19 06:18:20;;;;;;;6.10;4.50;;;6.30;29.60;;;6.38;57.43;101007.66;4792635;30;20194;-62
2022/04/19 06:21:00;;;;;;;7.50;5.18;;;6.40;28.40;;;6.52;57.27;101005.09;4807416;29;20197;-63
2022/04/19 06:23:29;;;;;;;5.78;4.82;;;6.40;27.70;;;6.53;56.79;101014.00;4802070;29;20279;-63
2022/04/19 06:25:58;;;;;;;5.55;5.00;;;6.50;23.90;;;6.53;56.13;101009.44;4784895;30;20730;-63
2022/04/19 06:28:29;;;;;;;6.32;4.60;;;6.60;1.00;;;6.67;56.07;101013.28;4798896;29;20653;-63
2022/04/19 06:31:16;;;;;;;6.70;5.35;;;6.70;1.00;;;6.89;55.54;101003.59;4788253;30;20217;-65
2022/04/19 06:34:17;;;;;;;7.13;5.78;;;6.80;1.00;;;7.03;54.88;101004.69;4784647;29;20227;-65
2022/04/19 06:36:59;;;;;;;8.82;5.88;;;7.00;1.00;;;6.98;55.18;101007.91;4804604;29;20202;-64
2022/04/19 06:39:29;;;;;;;13.52;6.95;;;7.00;1.00;;;7.19;55.02;101008.16;4788677;29;20216;-65
2022/04/19 06:41:58;;;;;;;6.45;4.97;;;7.10;1.00;;;7.43;54.43;101009.84;4806321;29;20221;-64
2022/04/19 06:44:33;;;;;;;6.47;4.25;;;7.30;1.00;;;7.41;53.41;101007.31;4804518;29;20271;-62
2022/04/19 06:47:09;;;;;;;11.25;4.85;;;7.50;1.00;;;7.52;53.29;101011.47;4778445;29;20206;-64
2022/04/19 06:49:42;;;;;;;5.95;4.25;;;7.50;1.00;;;7.55;52.52;101012.97;4788662;29;20210;-64
2022/04/19 06:52:11;;;;;;;7.10;4.18;;;7.60;1.00;;;7.56;52.50;101009.22;4783163;30;20220;-64
2022/04/19 06:54:40;;;;;;;12.20;6.00;;;7.60;1.00;;;7.53;52.63;101006.91;4806787;29;20224;-64
2022/04/19 06:57:08;;;;;;;7.90;5.50;;;7.60;1.00;;;7.61;51.80;101017.63;4791149;29;20203;-64
2022/04/19 06:59:37;;;;;;;7.95;6.05;;;7.60;1.00;;;7.80;51.93;101014.44;4789025;29;20549;-65
2022/04/19 07:02:07;;;;;;;7.63;6.20;;;7.70;1.00;;;8.04;51.63;101025.00;4788627;29;20735;-64
2022/04/19 07:04:39;;;;;;;11.93;6.18;;;7.90;1.00;;;8.15;50.82;101015.63;4776637;30;20234;-65
2022/04/19 07:07:13;;;;;;;12.52;5.88;;;8.10;1.00;;;8.22;50.58;101022.81;4794585;29;20624;-64
2022/04/19 07:09:45;;;;;;;7.38;6.03;;;8.20;1.00;;;8.48;49.49;101016.16;4779161;29;20210;-63
2022/04/19 07:12:14;;;;;;;9.30;5.97;;;8.40;1.00;;;8.39;48.36;101018.13;4789903;29;20210;-64
2022/04/19 07:14:58;;;;;;;8.75;5.10;;;8.40;1.00;;;8.45;48.37;101025.47;4789186;29;20673;-62
2022/04/19 07:17:53;;;;;;;9.07;5.80;;;8.50;1.00;;;8.73;47.76;101033.75;4780244;30;20297;-64
2022/04/19 07:28:46;;;;;;;4.30;3.90;;;9.00;1.00;;;9.06;47.14;101026.91;4788648;29;20214;-65
2022/04/19 07:31:16;;;;;;;8.70;6.80;;;9.10;1.00;;;8.85;47.22;101026.88;4798323;29;20221;-65
2022/04/19 07:33:46;;;;;;;9.23;5.18;;;8.90;1.00;;;8.85;46.87;101021.47;4796729;29;20500;-65
2022/04/19 07:36:15;;;;;;;10.18;5.25;;;8.80;1.00;;;8.93;46.67;101018.66;4774676;30;20710;-64
2022/04/19 07:38:49;;;;;;;14.02;8.88;;;8.90;1.00;;;9.39;45.67;101015.66;4787594;29;20237;-65
2022/04/19 07:41:29;;;;;;;15.38;11.27;;;9.20;1.00;;;9.13;46.08;101017.03;4792146;29;20214;-65
2022/04/19 07:43:58;;;;;;;7.15;6.45;;;9.10;1.00;;;9.46;45.94;101016.56;4781789;29;20230;-65
2022/04/19 07:46:27;;;;;;;11.25;6.97;;;9.30;1.00;;;9.73;45.08;101012.28;4795444;29;20360;-65
2022/04/19 07:48:56;;;;;;;7.18;4.57;;;9.60;1.00;;;9.94;43.32;101015.78;4784873;30;20241;-64
2022/04/19 07:51:26;;;;;;;4.68;3.85;;;9.70;1.00;;;10.14;41.73;101013.22;4779211;29;20688;-66
2022/04/19 07:53:57;;;;;;;7.13;6.20;;;10.00;1.00;;;10.16;42.05;101023.91;4794446;29;20291;-65
2022/04/19 07:56:26;;;;;;;9.63;3.22;;;10.10;1.00;;;10.46;40.69;101017.22;4792294;29;20211;-65
2022/04/19 07:58:55;;;;;;;8.20;7.40;;;10.30;1.00;;;10.32;40.62;101012.75;4799897;29;20668;-65
2022/04/19 08:01:24;;;;;;;7.88;5.72;;;10.30;1.00;;;10.21;40.65;101013.34;4796277;29;20464;-64
2022/04/19 08:03:54;;;;;;;6.03;4.05;;;10.20;1.00;;;10.32;40.63;101007.34;4801477;29;20651;-64
2022/04/19 08:06:23;;;;;;;9.80;8.80;;;10.20;1.00;;;10.48;40.68;101017.03;4773957;30;20661;-65
2022/04/19 08:08:51;;;;;;;4.87;4.37;;;10.40;1.00;;;10.53;41.13;101010.00;4773509;29;20557;-65
2022/04/19 08:11:23;;;;;;;9.20;8.30;;;10.50;1.00;;;10.68;40.80;101010.72;4786122;29;20970;-65
2022/04/19 08:13:52;;;;;;;5.90;5.27;;;10.60;1.00;;;10.31;41.59;101014.63;4787728;29;21060;-65
2022/04/19 08:16:21;;;;;;;5.10;2.90;;;10.40;1.00;;;10.74;41.30;101007.22;4802234;29;20459;-65
2022/04/19 08:18:50;;;;;;;4.13;2.53;;;10.60;1.00;;;10.96;40.68;101001.66;4802502;29;20913;-65
2022/04/19 08:21:19;;;;;;;7.57;2.97;;;10.70;1.00;;;10.81;40.69;100997.25;4788920;29;20839;-64
2022/04/19 08:23:49;;;;;;;4.47;2.97;;;10.70;1.00;;;10.92;40.55;100997.69;4802053;29;20471;-64
2022/04/19 08:26:22;;;;;;;7.70;3.43;;;10.80;1.00;;;11.15;40.41;101003.63;4784462;29;20489;-65
2022/04/19 08:28:51;;;;;;;3.47;2.08;;;11.00;1.00;;;11.18;39.88;100992.41;4770374;30;20524;-65
2022/04/19 08:31:20;;;;;;;6.07;3.60;;;11.10;1.00;;;11.30;39.88;100996.16;4802168;29;20749;-65
2022/04/19 08:33:48;;;;;;;5.03;2.83;;;11.20;1.00;;;11.21;40.50;100997.41;4787728;30;21093;-65
2022/04/19 08:36:20;;;;;;;3.83;2.77;;;11.20;1.00;;;11.04;41.00;100996.91;4790859;29;20428;-66
2022/04/19 08:38:51;;;;;;;8.03;6.67;;;11.00;1.00;;;11.08;40.39;101002.78;4784491;30;20449;-67
2022/04/19 08:41:24;;;;;;;6.63;5.93;;;11.00;1.00;;;11.30;40.04;100986.16;4783976;30;20811;-64
2022/04/19 08:43:55;;;;;;;4.97;3.10;;;11.20;1.00;;;11.48;39.75;100988.28;4783148;30;20480;-66
2022/04/19 08:46:26;;;;;;;7.53;3.17;;;11.30;1.00;;;11.45;39.92;100988.72;4769591;30;20441;-63
2022/04/19 08:49:03;;;;;;;5.20;3.67;;;11.30;1.00;;;11.61;40.02;100995.63;4787238;29;20499;-65
2022/04/19 08:51:36;;;;;;;5.10;3.57;;;11.40;1.00;;;11.33;40.41;100984.91;4787174;29;20456;-65
2022/04/19 08:59:42;;;;;;;4.20;2.63;;;11.30;1.00;;;11.45;40.12;100996.84;4769509;30;20923;-65
2022/04/19 09:02:22;;;;;;;7.88;2.90;;;11.40;1.00;;;11.27;40.81;101008.25;4769187;30;20428;-66
2022/04/19 09:04:52;;;;;;;6.33;3.10;;;11.20;1.00;;;11.52;40.29;100994.97;4769675;30;20197;-65
2022/04/19 09:07:36;;;;;;;2.93;2.50;;;11.40;1.00;;;11.79;40.30;100989.59;4782992;29;20506;-67
2022/04/19 09:10:07;;;;;;;5.47;3.23;;;11.60;1.00;;;11.89;39.98;100998.16;4769094;30;20488;-66
2022/04/19 09:12:37;;;;;;;8.13;2.70;;;11.70;1.00;;;11.72;39.57;100985.00;4769256;30;20872;-65
2022/04/19 09:15:08;;;;;;;5.93;2.50;;;11.70;1.00;;;11.87;39.35;100990.22;4792595;29;20554;-66
2022/04/19 09:17:40;;;;;;;7.17;2.40;;;11.70;1.00;;;12.18;39.21;100984.19;4787194;29;20436;-65
2022/04/19 09:20:15;;;;;;;3.33;2.23;;;11.90;1.00;;;12.10;38.85;100987.13;4787539;30;20431;-67
2022/04/19 09:22:45;;;;;;;9.33;3.10;;;12.10;1.00;;;12.49;38.75;101003.31;4787207;29;20546;-64
2022/04/19 09:25:24;;;;;;;6.63;2.30;;;12.20;1.00;;;12.35;38.44;100992.69;4786137;30;20440;-65
2022/04/19 09:27:57;;;;;;;2.57;2.37;;;12.30;1.00;;;12.37;38.52;100999.59;4786705;29;20442;-66
2022/04/19 09:30:28;;;;;;;9.13;3.00;;;12.20;1.00;;;12.63;38.20;100999.53;4787000;30;20601;-65
2022/04/19 09:33:16;;;;;;;6.77;4.40;;;12.40;1.00;;;12.42;37.72;101002.50;4774554;29;20515;-67
2022/04/19 09:35:49;;;;;;;4.40;3.90;;;12.40;1.00;;;12.37;38.57;100987.91;4770957;30;20472;-65
2022/04/19 09:38:33;;;;;;;10.77;4.10;;;12.30;1.00;;;12.69;38.02;100991.56;4769259;30;20417;-65
2022/04/19 09:41:09;;;;;;;5.33;2.27;;;12.50;1.00;;;12.71;37.21;100990.34;4768943;30;20486;-64
2022/04/19 09:44:07;;;;;;;3.53;3.23;;;12.50;1.00;;;12.84;37.48;100986.72;4800221;29;20476;-65
2022/04/19 09:46:37;;;;;;;3.30;2.37;;;12.70;1.00;;;13.05;37.00;100991.88;4781350;30;20506;-64
2022/04/19 09:49:07;;;;;;;3.47;3.17;;;12.80;1.00;;;12.97;36.89;100994.84;4769114;30;20790;-65
2022/04/19 09:51:37;;;;;;;3.80;2.13;;;12.90;1.00;;;13.02;36.09;100993.13;4783260;30;20934;-66
2022/04/19 09:54:06;;;;;;;2.57;1.70;;;12.90;1.00;;;13.10;35.93;100981.19;4815034;24;21058;-68
2022/04/19 09:56:37;;;;;;;3.60;2.30;;;13.00;1.00;;;13.14;35.88;100982.44;4788565;29;20507;-68
2022/04/19 09:59:20;;;;;;;3.07;2.30;;;13.00;1.00;;;13.42;35.71;100988.34;4786200;29;20446;-68
2022/04/19 10:10:13;;;;;;;1.70;1.60;;;13.10;1.00;;;13.45;35.35;100997.97;4804864;29;20496;-68
2022/04/19 10:12:44;;;;;;;6.23;2.40;;;13.30;1.00;;;13.29;35.75;100990.31;4803967;29;20435;-70
2022/04/19 10:15:15;;;;;;;9.17;3.33;;;13.30;1.00;;;12.98;36.77;100991.06;4804370;29;20439;-68
2022/04/19 10:17:44;;;;;;;1.50;1.20;;;13.00;1.00;;;12.82;36.26;100981.53;4804052;29;20534;-68
2022/04/19 10:20:14;;;;;;;3.03;2.10;;;12.80;1.00;;;13.15;36.02;100986.00;4802963;29;20807;-68
2022/04/19 10:22:48;;;;;;;4.83;2.13;;;13.00;1.00;;;13.11;36.51;100991.03;4803447;29;20443;-68
2022/04/19 10:25:18;;;;;;;4.40;2.40;;;13.00;1.00;;;13.13;36.63;100982.66;4803539;29;20430;-68
2022/04/19 10:27:49;;;;;;;4.40;2.10;;;13.00;1.00;;;13.53;36.61;100978.66;4803422;29;20443;-69
2022/04/19 10:30:20;;;;;;;6.60;2.30;;;13.20;1.00;;;13.91;35.55;100975.88;4804004;29;20968;-68
2022/04/19 10:32:49;;;;;;;4.10;1.87;;;13.60;1.00;;;14.18;34.90;100982.75;4803321;29;20443;-70
2022/04/19 10:35:18;;;;;;;2.30;1.80;;;13.90;1.00;;;14.17;34.53;100978.38;4803284;29;20447;-69
2022/04/19 10:37:49;;;;;;;11.70;3.80;;;13.90;1.00;;;14.20;34.38;100975.19;4804808;29;20963;-69
2022/04/19 10:40:22;;;;;;;2.33;1.73;;;14.00;1.00;;;14.27;34.21;100970.53;4807073;29;20439;-69
2022/04/19 10:43:14;;;;;;;2.67;2.00;;;14.10;1.00;;;14.34;33.88;100976.72;4806343;29;20836;-67
2022/04/19 10:45:46;;;;;;;4.57;2.03;;;14.20;1.00;;;14.25;34.30;100978.06;4807976;29;20442;-68
2022/04/19 10:48:16;;;;;;;5.93;2.10;;;14.10;1.00;;;14.35;34.20;100970.22;4806565;29;20513;-68
2022/04/19 10:50:50;;;;;;;4.03;2.17;;;14.20;1.00;;;14.65;33.46;100978.53;4806553;29;20466;-70
2022/04/19 10:53:33;;;;;;;3.20;2.10;;;14.30;1.00;;;14.39;33.80;100973.34;4806291;29;20486;-68
2022/04/19 10:56:08;;;;;;;4.03;2.30;;;14.40;1.00;;;13.74;34.96;100988.34;4804369;29;20454;-67
2022/04/19 10:58:43;;;;;;;5.47;1.97;;;13.90;1.00;;;13.88;34.98;100981.75;4805468;29;20476;-68
2022/04/19 11:01:30;;;;;;;6.10;2.07;;;13.70;1.00;;;14.13;34.91;100985.31;4805454;29;20466;-68
2022/04/19 11:04:00;;;;;;;7.70;2.40;;;13.90;1.00;;;13.93;34.80;100984.66;4805406;29;20455;-68
2022/04/19 11:06:38;;;;;;;3.97;1.90;;;13.80;1.00;;;13.39;35.47;100982.53;4804982;29;20443;-70
2022/04/19 11:09:23;;;;;;;3.73;2.60;;;13.50;1.00;;;13.28;35.90;100970.47;4805817;29;20503;-68
2022/04/19 11:11:56;;;;;;;2.07;1.73;;;13.30;1.00;;;13.20;36.28;100984.31;4805728;29;20454;-69
2022/04/19 11:14:41;;;;;;;2.03;1.70;;;13.10;1.00;;;13.54;36.22;100974.06;4805343;29;20451;-67
2022/04/19 11:17:29;;;;;;;2.50;1.87;;;13.30;1.00;;;13.54;35.58;100969.47;4804697;29;20469;-67
2022/04/19 11:20:15;;;;;;;3.57;1.87;;;13.40;1.00;;;13.62;35.58;100971.06;4805689;29;20626;-67
2022/04/19 11:22:52;;;;;;;3.63;2.20;;;13.40;1.00;;;13.73;35.51;100978.53;4805582;29;20447;-67
2022/04/19 11:25:39;;;;;;;3.10;2.33;;;13.60;1.00;;;13.61;35.65;100983.00;4806025;29;20473;-67
2022/04/19 11:28:31;;;;;;;3.00;2.30;;;13.50;1.00;;;13.29;36.24;100974.84;4805170;29;20535;-69